Time,TemperatureF,DewpointF,PressureIn,WindDirection,WindDirectionDegrees,WindSpeedMPH,WindSpeedGustMPH,Humidity,HourlyPrecipIn,Conditions,Clouds,dailyrainin,SoftwareType,DateUTC
2013-09-27 00:03:00,56.7,33.2,30.06,NNE,22,0.0,1.0,41,0.00,CLR,CLR,0.00,WeatherDisplay:10.37,2013-09-27 04:03:00,
2013-09-27 00:18:00,56.5,33.0,30.06,NNE,22,0.0,0.0,41,0.00,CLR,CLR,0.00,WeatherDisplay:10.37,2013-09-27 04:18:00,
2013-09-27 00:33:00,56.5,35.4,30.06,NNE,20,1.0,2.0,45,0.00,CLR,CLR,0.00,WeatherDisplay:10.37,2013-09-27 04:33:00,
2013-09-27 00:48:00,56.1,32.7,30.06,NNE,22,0.0,2.0,41,0.00,CLR,CLR,0.00,WeatherDisplay:10.37,2013-09-27 04:48:00,
2013-09-27 01:03:00,56.1,34.5,30.09,NNE,22,0.0,1.0,44,0.00,CLR,CLR,0.00,WeatherDisplay:10.37,2013-09-27 05:03:00,
2013-09-27 01:18:00,56.5,38.6,30.09,NNE,22,2.0,2.0,51,0.00,CLR,CLR,0.00,WeatherDisplay:10.37,2013-09-27 05:18:00,
2013-09-27 01:33:00,56.7,45.0,30.09,NNE,33,2.0,3.0,65,0.00,CLR,CLR,0.00,WeatherDisplay:10.37,2013-09-27 05:33:00,
2013-09-27 01:48:00,57.0,43.3,30.12,NE,45,2.0,3.0,60,0.00,CLR,CLR,0.00,WeatherDisplay:10.37,2013-09-27 05:48:00,
2013-09-27 02:03:00,57.4,38.9,30.12,NE,45,1.0,2.0,50,0.00,CLR,CLR,0.00,WeatherDisplay:10.37,2013-09-27 06:03:00,
2013-09-27 02:18:00,57.6,36.4,30.12,NE,45,2.0,3.0,45,0.00,CLR,CLR,0.00,WeatherDisplay:10.37,2013-09-27 06:18:00,
2013-09-27 02:33:00,57.6,35.8,30.12,NE,45,1.0,2.0,44,0.00,CLR,CLR,0.00,WeatherDisplay:10.37,2013-09-27 06:33:00,
2013-09-27 02:48:00,57.2,33.7,30.12,NE,45,0.0,2.0,41,0.00,CLR,CLR,0.00,WeatherDisplay:10.37,2013-09-27 06:48:00,
2013-09-27 03:03:00,57.0,34.7,30.12,NE,43,1.0,2.0,43,0.00,CLR,CLR,0.00,WeatherDisplay:10.37,2013-09-27 07:03:00,
2013-09-27 03:04:00,57.2,36.6,30.12,NE,45,1.0,2.0,46,0.00,CLR,CLR,0.00,WeatherDisplay:10.37,2013-09-27 07:04:00,
2013-09-27 03:05:00,57.2,36.6,30.12,NE,45,1.0,0.0,46,0.00,CLR,CLR,0.00,WeatherDisplay:10.37,2013-09-27 07:05:00,
2013-09-27 03:06:00,57.2,36.6,30.12,NE,45,1.0,0.0,46,0.00,CLR,CLR,0.00,WeatherDisplay:10.37,2013-09-27 07:06:00,
2013-09-27 03:07:00,57.2,36.6,30.12,NE,45,1.0,0.0,46,0.00,CLR,CLR,0.00,WeatherDisplay:10.37,2013-09-27 07:07:00,
2013-09-27 03:08:00,57.2,36.6,30.12,NE,45,1.0,0.0,46,0.00,CLR,CLR,0.00,WeatherDisplay:10.37,2013-09-27 07:08:00,
2013-09-27 03:09:00,57.2,36.6,30.12,NE,45,1.0,0.0,46,0.00,CLR,CLR,0.00,WeatherDisplay:10.37,2013-09-27 07:09:00,
2013-09-27 03:10:00,57.2,36.6,30.12,NE,45,1.0,0.0,46,0.00,CLR,CLR,0.00,WeatherDisplay:10.37,2013-09-27 07:10:00,
2013-09-27 03:11:00,57.2,36.6,30.12,NE,45,1.0,0.0,46,0.00,CLR,CLR,0.00,WeatherDisplay:10.37,2013-09-27 07:11:00,
2013-09-27 03:12:00,57.2,36.6,30.12,NE,45,1.0,0.0,46,0.00,CLR,CLR,0.00,WeatherDisplay:10.37,2013-09-27 07:12:00,
2013-09-27 03:13:00,57.2,36.6,30.12,NE,45,1.0,0.0,46,0.00,CLR,CLR,0.00,WeatherDisplay:10.37,2013-09-27 07:13:00,
2013-09-27 03:14:00,57.2,36.6,30.12,NE,45,1.0,0.0,46,0.00,CLR,CLR,0.00,WeatherDisplay:10.37,2013-09-27 07:14:00,
2013-09-27 03:15:00,57.2,36.6,30.12,NE,45,1.0,0.0,46,0.00,CLR,CLR,0.00,WeatherDisplay:10.37,2013-09-27 07:15:00,
2013-09-27 03:16:00,57.2,36.6,30.12,NE,45,1.0,0.0,46,0.00,CLR,CLR,0.00,WeatherDisplay:10.37,2013-09-27 07:16:00,
2013-09-27 03:17:00,57.2,36.6,30.12,NE,45,1.0,0.0,46,0.00,CLR,CLR,0.00,WeatherDisplay:10.37,2013-09-27 07:17:00,
2013-09-27 03:18:00,57.2,36.6,30.12,NE,45,1.0,0.0,46,0.00,CLR,CLR,0.00,WeatherDisplay:10.37,2013-09-27 07:18:00,
2013-09-27 08:18:00,57.2,36.6,30.12,NE,45,3.1,3.1,46,0.00,CLR,,0.00,WeatherDisplay:10.37,2013-09-27 12:18:00,
2013-09-27 08:23:00,57.4,36.8,30.12,NNE,22,2.3,2.3,46,0.00,CLR,,0.00,WeatherDisplay:10.37,2013-09-27 12:23:00,
2013-09-27 08:28:00,57.6,36.9,30.12,NNE,22,1.4,1.4,46,0.00,CLR,,0.00,WeatherDisplay:10.37,2013-09-27 12:28:00,
2013-09-27 08:33:00,57.6,36.9,30.12,NNE,22,2.3,2.3,46,0.00,CLR,,0.00,WeatherDisplay:10.37,2013-09-27 12:33:00,
2013-09-27 08:38:00,57.7,37.1,30.12,NE,45,2.3,2.3,46,0.00,CLR,,0.00,WeatherDisplay:10.37,2013-09-27 12:38:00,
2013-09-27 08:43:00,58.1,37.4,30.12,NE,45,2.3,2.3,46,0.00,CLR,,0.00,WeatherDisplay:10.37,2013-09-27 12:43:00,
2013-09-27 08:48:00,58.5,37.7,30.12,NNE,22,2.3,2.3,46,0.00,CLR,,0.00,WeatherDisplay:10.37,2013-09-27 12:48:00,
2013-09-27 08:53:00,58.6,37.9,30.12,NE,45,2.3,2.3,46,0.00,CLR,,0.00,WeatherDisplay:10.37,2013-09-27 12:53:00,
2013-09-27 08:58:00,59.0,38.2,30.12,NE,45,2.3,2.3,46,0.00,CLR,,0.00,WeatherDisplay:10.37,2013-09-27 12:58:00,
2013-09-27 09:03:00,59.5,38.7,30.12,NE,45,2.3,2.3,46,0.00,CLR,,0.00,WeatherDisplay:10.37,2013-09-27 13:03:00,
2013-09-27 09:08:00,59.9,39.1,30.12,NE,45,1.6,1.6,46,0.00,CLR,,0.00,WeatherDisplay:10.37,2013-09-27 13:08:00,
2013-09-27 09:13:00,60.3,39.4,30.12,NNE,22,2.3,2.3,46,0.00,CLR,,0.00,WeatherDisplay:10.37,2013-09-27 13:13:00,
2013-09-27 09:19:00,60.6,39.7,30.15,NE,45,2.3,2.3,46,0.00,CLR,,0.00,WeatherDisplay:10.37,2013-09-27 13:19:00,
2013-09-27 09:24:00,61.2,40.2,30.15,NE,45,2.4,2.4,46,0.00,CLR,,0.00,WeatherDisplay:10.37,2013-09-27 13:24:00,
2013-09-27 09:29:00,61.5,40.5,30.15,NE,45,1.2,1.2,46,0.00,CLR,,0.00,WeatherDisplay:10.37,2013-09-27 13:29:00,
2013-09-27 09:34:00,61.9,40.9,30.15,NE,45,1.2,0.0,46,0.00,CLR,,0.00,WeatherDisplay:10.37,2013-09-27 13:34:00,
2013-09-27 09:39:00,62.4,61.6,30.15,NE,45,1.2,0.0,97,0.00,CLR,,0.00,WeatherDisplay:10.37,2013-09-27 13:39:00,
2013-09-27 09:44:00,63.0,61.2,30.15,NNW,338,2.3,2.3,94,0.00,CLR,,0.00,WeatherDisplay:10.37,2013-09-27 13:44:00,
2013-09-27 09:49:00,63.3,61.3,30.15,NE,45,0.0,0.0,93,0.00,CLR,,0.00,WeatherDisplay:10.37,2013-09-27 13:49:00,
2013-09-27 09:54:00,63.7,61.3,30.15,NNW,338,0.0,0.0,92,0.00,CLR,,0.00,WeatherDisplay:10.37,2013-09-27 13:54:00,
2013-09-27 09:59:00,64.2,61.5,30.15,North,0,0.0,0.0,91,0.00,CLR,,0.00,WeatherDisplay:10.37,2013-09-27 13:59:00,
2013-09-27 10:04:00,64.4,61.1,30.15,NE,45,0.0,0.0,89,0.00,CLR,,0.00,WeatherDisplay:10.37,2013-09-27 14:04:00,
2013-09-27 10:09:00,64.9,61.6,30.15,West,270,0.0,0.0,89,0.00,CLR,,0.00,WeatherDisplay:10.37,2013-09-27 14:09:00,
2013-09-27 10:14:00,65.3,61.7,30.15,East,90,0.0,0.0,88,0.00,CLR,,0.00,WeatherDisplay:10.37,2013-09-27 14:14:00,
2013-09-27 10:19:00,65.8,61.5,30.15,East,90,0.0,0.0,86,0.00,CLR,,0.00,WeatherDisplay:10.37,2013-09-27 14:19:00,
2013-09-27 10:24:00,66.2,60.5,30.15,East,90,0.0,0.0,82,0.00,CLR,,0.00,WeatherDisplay:10.37,2013-09-27 14:24:00,
2013-09-27 10:29:00,66.6,60.5,30.15,East,90,0.0,0.0,81,0.00,CLR,,0.00,WeatherDisplay:10.37,2013-09-27 14:29:00,
2013-09-27 10:34:00,67.1,60.4,30.15,East,90,0.0,0.0,79,0.00,CLR,,0.00,WeatherDisplay:10.37,2013-09-27 14:34:00,
2013-09-27 10:39:00,67.3,60.5,30.15,NE,45,0.0,0.0,79,0.00,CLR,,0.00,WeatherDisplay:10.37,2013-09-27 14:39:00,
2013-09-27 10:44:00,67.8,60.7,30.15,North,0,0.0,0.0,78,0.00,CLR,,0.00,WeatherDisplay:10.37,2013-09-27 14:44:00,
2013-09-27 10:48:00,68.2,60.7,30.15,NNE,22,0.0,0.0,77,0.00,CLR,,0.00,WeatherDisplay:10.37,2013-09-27 14:48:00,
2013-09-27 10:53:00,68.7,61.2,30.15,East,90,0.0,0.0,77,0.00,CLR,,0.00,WeatherDisplay:10.37,2013-09-27 14:53:00,
2013-09-27 10:58:00,69.8,62.3,30.15,East,90,0.0,0.0,77,0.00,CLR,,0.00,WeatherDisplay:10.37,2013-09-27 14:58:00,
2013-09-27 11:03:00,70.5,61.8,30.15,East,90,0.0,0.0,74,0.00,CLR,,0.00,WeatherDisplay:10.37,2013-09-27 15:03:00,
2013-09-27 11:08:00,71.6,62.9,30.15,NE,45,0.0,0.0,74,0.00,CLR,,0.00,WeatherDisplay:10.37,2013-09-27 15:08:00,
2013-09-27 11:13:00,72.5,63.7,30.15,SE,135,0.0,0.0,74,0.00,CLR,,0.00,WeatherDisplay:10.37,2013-09-27 15:13:00,
2013-09-27 11:18:00,73.6,63.6,30.15,North,0,0.0,0.0,71,0.00,CLR,,0.00,WeatherDisplay:10.37,2013-09-27 15:18:00,
2013-09-27 11:23:00,74.1,64.1,30.15,East,90,0.0,0.0,71,0.00,CLR,,0.00,WeatherDisplay:10.37,2013-09-27 15:23:00,
2013-09-27 11:28:00,74.5,64.5,30.15,SW,225,0.0,0.0,71,0.00,CLR,,0.00,WeatherDisplay:10.37,2013-09-27 15:28:00,
2013-09-27 11:33:00,74.8,64.8,30.15,West,270,0.0,0.0,71,0.00,CLR,,0.00,WeatherDisplay:10.37,2013-09-27 15:33:00,
2013-09-27 11:38:00,75.7,65.3,30.15,East,90,0.0,0.0,70,0.00,CLR,,0.00,WeatherDisplay:10.37,2013-09-27 15:38:00,
2013-09-27 11:43:00,76.8,66.3,30.15,NNE,22,0.0,0.0,70,0.00,CLR,,0.00,WeatherDisplay:10.37,2013-09-27 15:43:00,
2013-09-27 11:48:00,76.8,66.3,30.15,WSW,248,1.4,0.0,70,0.00,CLR,,0.00,WeatherDisplay:10.37,2013-09-27 15:48:00,
2013-09-27 11:53:00,77.5,67.0,30.15,South,180,1.2,1.4,70,0.00,CLR,,0.00,WeatherDisplay:10.37,2013-09-27 15:53:00,
2013-09-27 11:58:00,78.3,67.7,30.15,ENE,68,2.3,2.3,70,0.00,CLR,,0.00,WeatherDisplay:10.37,2013-09-27 15:58:00,
2013-09-27 12:03:00,79.0,68.4,30.15,NE,45,2.3,2.3,70,0.00,CLR,,0.00,WeatherDisplay:10.37,2013-09-27 16:03:00,
2013-09-27 12:08:00,79.2,68.5,30.15,NNW,338,3.5,3.5,70,0.00,CLR,,0.00,WeatherDisplay:10.37,2013-09-27 16:08:00,
2013-09-27 12:13:00,80.2,69.6,30.15,North,0,1.2,1.2,70,0.00,CLR,,0.00,WeatherDisplay:10.37,2013-09-27 16:13:00,
2013-09-27 12:18:00,81.5,70.3,30.15,East,90,2.3,2.3,69,0.00,CLR,,0.00,WeatherDisplay:10.37,2013-09-27 16:18:00,
2013-09-27 12:23:00,82.0,70.9,30.15,SE,135,2.3,2.3,69,0.00,CLR,,0.00,WeatherDisplay:10.37,2013-09-27 16:23:00,
2013-09-27 12:28:00,82.4,71.2,30.15,WSW,248,1.6,0.0,69,0.00,CLR,,0.00,WeatherDisplay:10.37,2013-09-27 16:28:00,
2013-09-27 12:33:00,81.3,70.2,30.15,East,90,4.6,4.6,69,0.00,CLR,,0.00,WeatherDisplay:10.37,2013-09-27 16:33:00,
2013-09-27 12:38:00,82.4,71.2,30.15,East,90,2.3,2.3,69,0.00,CLR,,0.00,WeatherDisplay:10.37,2013-09-27 16:38:00,
2013-09-27 12:43:00,80.8,69.7,30.15,West,270,2.3,2.3,69,0.00,CLR,,0.00,WeatherDisplay:10.37,2013-09-27 16:43:00,
2013-09-27 12:48:00,82.9,71.7,30.15,East,90,3.5,3.5,69,0.00,CLR,,0.00,WeatherDisplay:10.37,2013-09-27 16:48:00,
2013-09-27 12:53:00,80.6,69.5,30.15,NW,315,2.3,2.3,69,0.00,CLR,,0.00,WeatherDisplay:10.37,2013-09-27 16:53:00,
2013-09-27 12:58:00,82.0,70.9,30.15,NW,315,2.3,2.3,69,0.00,CLR,,0.00,WeatherDisplay:10.37,2013-09-27 16:58:00,
2013-09-27 13:03:00,83.7,72.4,30.15,SE,135,2.4,2.4,69,0.00,CLR,,0.00,WeatherDisplay:10.37,2013-09-27 17:03:00,
2013-09-27 13:08:00,84.6,72.8,30.15,South,180,2.3,2.3,68,0.00,CLR,,0.00,WeatherDisplay:10.37,2013-09-27 17:08:00,
2013-09-27 13:13:00,84.2,72.5,30.15,South,180,5.8,5.8,68,0.00,CLR,,0.00,WeatherDisplay:10.37,2013-09-27 17:13:00,
2013-09-27 13:18:00,81.5,70.3,30.15,NNW,338,2.3,2.3,69,0.00,CLR,,0.00,WeatherDisplay:10.37,2013-09-27 17:18:00,
2013-09-27 13:23:00,82.4,71.2,30.15,NE,45,2.3,2.3,69,0.00,CLR,,0.00,WeatherDisplay:10.37,2013-09-27 17:23:00,
2013-09-27 13:28:00,84.9,73.2,30.15,NE,45,2.0,2.0,68,0.00,CLR,,0.00,WeatherDisplay:10.37,2013-09-27 17:28:00,
2013-09-27 13:33:00,82.2,71.0,30.15,NE,45,2.3,2.3,69,0.00,CLR,,0.00,WeatherDisplay:10.37,2013-09-27 17:33:00,
2013-09-27 13:38:00,81.5,70.3,30.15,NNE,22,3.5,3.5,69,0.00,CLR,,0.00,WeatherDisplay:10.37,2013-09-27 17:38:00,
2013-09-27 13:43:00,81.3,70.2,30.15,NE,45,2.4,2.4,69,0.00,CLR,,0.00,WeatherDisplay:10.37,2013-09-27 17:43:00,
2013-09-27 13:48:00,83.7,72.4,30.12,NE,45,2.9,2.9,69,0.00,-RA,,0.00,WeatherDisplay:10.37,2013-09-27 17:48:00,
2013-09-27 13:53:00,83.5,72.2,30.12,East,90,3.5,3.5,69,0.00,-RA,,0.00,WeatherDisplay:10.37,2013-09-27 17:53:00,
2013-09-27 13:58:00,84.4,72.7,30.12,NE,45,2.3,2.3,68,0.00,-RA,,0.00,WeatherDisplay:10.37,2013-09-27 17:58:00,
2013-09-27 14:03:00,85.1,73.3,30.12,East,90,1.2,0.0,68,0.00,-DZ,,0.00,WeatherDisplay:10.37,2013-09-27 18:03:00,
2013-09-27 14:08:00,84.0,72.8,30.12,East,90,1.2,1.2,69,0.00,-DZ,,0.00,WeatherDisplay:10.37,2013-09-27 18:08:00,
2013-09-27 14:13:00,85.1,73.3,30.12,NE,45,2.3,2.3,68,0.00,-DZ,,0.00,WeatherDisplay:10.37,2013-09-27 18:13:00,
2013-09-27 14:18:00,84.4,72.7,30.12,NE,45,2.4,2.4,68,0.00,-DZ,,0.00,WeatherDisplay:10.37,2013-09-27 18:18:00,
2013-09-27 14:23:00,84.4,72.7,30.12,NE,45,4.6,4.6,68,0.00,-DZ,,0.00,WeatherDisplay:10.37,2013-09-27 18:23:00,
2013-09-27 14:28:00,82.0,70.9,30.12,NE,45,1.4,1.4,69,0.00,-DZ,,0.00,WeatherDisplay:10.37,2013-09-27 18:28:00,
2013-09-27 14:33:00,81.0,69.8,30.12,NE,45,2.3,2.3,69,0.00,CLR,,0.00,WeatherDisplay:10.37,2013-09-27 18:33:00,
2013-09-27 14:38:00,80.6,69.5,30.12,North,0,3.5,3.5,69,0.00,CLR,,0.00,WeatherDisplay:10.37,2013-09-27 18:38:00,
2013-09-27 14:43:00,80.1,69.4,30.12,NE,45,1.4,1.4,70,0.00,CLR,,0.00,WeatherDisplay:10.37,2013-09-27 18:43:00,
2013-09-27 14:48:00,79.3,68.7,30.12,East,90,1.2,0.0,70,0.00,CLR,,0.00,WeatherDisplay:10.37,2013-09-27 18:48:00,
2013-09-27 14:53:00,78.3,67.7,30.12,SW,225,2.3,2.3,70,0.00,CLR,,0.00,WeatherDisplay:10.37,2013-09-27 18:53:00,
2013-09-27 14:58:00,79.9,69.2,30.12,SW,225,1.4,1.4,70,0.00,CLR,,0.00,WeatherDisplay:10.37,2013-09-27 18:58:00,
2013-09-27 15:03:00,83.5,72.2,30.12,SW,225,2.4,2.4,69,0.00,CLR,,0.00,WeatherDisplay:10.37,2013-09-27 19:03:00,
2013-09-27 15:08:00,84.7,73.0,30.12,East,90,2.9,2.9,68,0.00,CLR,,0.00,WeatherDisplay:10.37,2013-09-27 19:08:00,
2013-09-27 15:13:00,85.3,73.5,30.12,North,0,2.6,2.6,68,0.00,CLR,,0.00,WeatherDisplay:10.37,2013-09-27 19:13:00,
2013-09-27 15:18:00,84.0,72.8,30.12,NW,315,2.3,2.3,69,0.00,BKN,,0.00,WeatherDisplay:10.37,2013-09-27 19:18:00,
2013-09-27 15:23:00,81.5,70.3,30.12,NE,45,2.9,2.9,69,0.00,BKN,,0.00,WeatherDisplay:10.37,2013-09-27 19:23:00,
2013-09-27 15:28:00,80.6,69.5,30.12,East,90,0.0,0.0,69,0.00,BKN,,0.00,WeatherDisplay:10.37,2013-09-27 19:28:00,
2013-09-27 15:33:00,79.9,69.2,30.12,North,0,2.3,2.3,70,0.00,BKN,,0.00,WeatherDisplay:10.37,2013-09-27 19:33:00,
2013-09-27 15:38:00,81.1,70.0,30.12,NE,45,2.3,2.3,69,0.00,BKN,,0.00,WeatherDisplay:10.37,2013-09-27 19:38:00,
2013-09-27 15:43:00,83.3,72.1,30.12,NE,45,2.3,2.3,69,0.00,BKN,,0.00,WeatherDisplay:10.37,2013-09-27 19:43:00,
2013-09-27 15:48:00,84.0,72.8,30.09,NE,45,2.3,2.3,69,0.00,BKN,,0.00,WeatherDisplay:10.37,2013-09-27 19:48:00,
2013-09-27 15:53:00,83.5,72.2,30.09,SE,135,2.3,2.3,69,0.00,BKN,,0.00,WeatherDisplay:10.37,2013-09-27 19:53:00,
2013-09-27 15:58:00,84.4,72.7,30.09,SW,225,1.2,1.2,68,0.00,BKN,,0.00,WeatherDisplay:10.37,2013-09-27 19:58:00,
2013-09-27 16:03:00,86.0,74.2,30.09,NE,45,0.0,0.0,68,0.00,BKN,,0.00,WeatherDisplay:10.37,2013-09-27 20:03:00,
2013-09-27 16:08:00,86.0,74.2,30.09,NE,45,3.5,3.5,68,0.00,BKN,,0.00,WeatherDisplay:10.37,2013-09-27 20:08:00,
2013-09-27 16:13:00,84.9,73.2,30.09,East,90,2.3,2.3,68,0.00,BKN,,0.00,WeatherDisplay:10.37,2013-09-27 20:13:00,
2013-09-27 16:18:00,85.1,73.3,30.09,North,0,3.5,3.5,68,0.00,SCT,,0.00,WeatherDisplay:10.37,2013-09-27 20:18:00,
2013-09-27 16:23:00,86.7,74.9,30.09,NNE,22,1.6,0.0,68,0.00,SCT,,0.00,WeatherDisplay:10.37,2013-09-27 20:23:00,
2013-09-27 16:28:00,86.9,75.1,30.09,SE,135,1.2,1.2,68,0.00,SCT,,0.00,WeatherDisplay:10.37,2013-09-27 20:28:00,
2013-09-27 16:33:00,86.5,74.7,30.09,NE,45,1.2,1.2,68,0.00,SCT,,0.00,WeatherDisplay:10.37,2013-09-27 20:33:00,
2013-09-27 16:38:00,86.2,74.4,30.09,East,90,3.5,3.5,68,0.00,SCT,,0.00,WeatherDisplay:10.37,2013-09-27 20:38:00,
2013-09-27 16:43:00,86.0,74.2,30.09,NW,315,1.2,0.0,68,0.00,SCT,,0.00,WeatherDisplay:10.37,2013-09-27 20:43:00,
2013-09-27 16:48:00,86.7,74.9,30.09,East,90,1.2,0.0,68,0.00,SCT,,0.00,WeatherDisplay:10.37,2013-09-27 20:48:00,
2013-09-27 16:53:00,86.2,74.4,30.09,NE,45,2.3,2.3,68,0.00,SCT,,0.00,WeatherDisplay:10.37,2013-09-27 20:53:00,
2013-09-27 16:58:00,86.0,74.2,30.09,North,0,2.3,2.3,68,0.00,SCT,,0.00,WeatherDisplay:10.37,2013-09-27 20:58:00,
2013-09-27 17:03:00,86.2,74.4,30.09,East,90,1.2,0.0,68,0.00,SCT,,0.00,WeatherDisplay:10.37,2013-09-27 21:03:00,
2013-09-27 17:08:00,85.6,73.9,30.09,NE,45,2.3,2.3,68,0.00,SCT,,0.00,WeatherDisplay:10.37,2013-09-27 21:08:00,
2013-09-27 17:13:00,85.6,73.9,30.09,SE,135,0.0,0.0,68,0.00,SCT,,0.00,WeatherDisplay:10.37,2013-09-27 21:13:00,
2013-09-27 17:18:00,84.9,73.2,30.09,East,90,3.5,3.5,68,0.00,FEW,,0.00,WeatherDisplay:10.37,2013-09-27 21:18:00,
2013-09-27 17:23:00,84.6,72.8,30.09,NE,45,2.3,2.3,68,0.00,FEW,,0.00,WeatherDisplay:10.37,2013-09-27 21:23:00,
2013-09-27 17:28:00,84.4,72.7,30.09,NE,45,2.3,2.3,68,0.00,FEW,,0.00,WeatherDisplay:10.37,2013-09-27 21:28:00,
2013-09-27 17:33:00,83.7,72.4,30.09,NE,45,2.3,2.3,69,0.00,FEW,,0.00,WeatherDisplay:10.37,2013-09-27 21:33:00,
2013-09-27 17:38:00,83.5,72.2,30.09,East,90,1.2,0.0,69,0.00,FEW,,0.00,WeatherDisplay:10.37,2013-09-27 21:38:00,
2013-09-27 17:43:00,83.3,72.1,30.09,East,90,2.3,2.3,69,0.00,FEW,,0.00,WeatherDisplay:10.37,2013-09-27 21:43:00,
2013-09-27 17:48:00,83.1,71.9,30.09,NE,45,1.2,1.2,69,0.00,FEW,,0.00,WeatherDisplay:10.37,2013-09-27 21:48:00,
2013-09-27 17:53:00,82.6,71.4,30.09,East,90,2.3,0.0,69,0.00,FEW,,0.00,WeatherDisplay:10.37,2013-09-27 21:53:00,
2013-09-27 17:58:00,82.0,70.9,30.09,East,90,3.5,3.5,69,0.00,FEW,,0.00,WeatherDisplay:10.37,2013-09-27 21:58:00,
2013-09-27 18:03:00,81.7,70.5,30.09,SSE,158,2.3,2.3,69,0.00,FEW,,0.00,WeatherDisplay:10.37,2013-09-27 22:03:00,
2013-09-27 18:08:00,81.0,69.8,30.09,NE,45,2.3,2.3,69,0.00,FEW,,0.00,WeatherDisplay:10.37,2013-09-27 22:08:00,
2013-09-27 18:13:00,80.2,69.6,30.09,East,90,2.3,2.3,70,0.00,FEW,,0.00,WeatherDisplay:10.37,2013-09-27 22:13:00,
2013-09-27 18:18:00,80.1,69.4,30.09,NE,45,2.0,2.0,70,0.00,FEW,,0.00,WeatherDisplay:10.37,2013-09-27 22:18:00,
2013-09-27 18:23:00,79.3,68.7,30.09,East,90,2.3,2.3,70,0.00,FEW,,0.00,WeatherDisplay:10.37,2013-09-27 22:23:00,
2013-09-27 18:28:00,78.6,68.0,30.09,NE,45,1.2,0.0,70,0.00,FEW,,0.00,WeatherDisplay:10.37,2013-09-27 22:28:00,
2013-09-27 18:33:00,78.3,67.7,30.09,NE,45,2.2,2.2,70,0.00,FEW,,0.00,WeatherDisplay:10.37,2013-09-27 22:33:00,
2013-09-27 18:38:00,77.7,66.3,30.09,NE,45,1.6,0.0,68,0.00,FEW,,0.00,WeatherDisplay:10.37,2013-09-27 22:38:00,
2013-09-27 18:43:00,77.2,65.8,30.09,East,90,2.3,2.3,68,0.00,FEW,,0.00,WeatherDisplay:10.37,2013-09-27 22:43:00,
2013-09-27 18:48:00,76.5,65.1,30.09,NE,45,1.2,1.2,68,0.00,FEW,,0.00,WeatherDisplay:10.37,2013-09-27 22:48:00,
2013-09-27 18:53:00,75.7,64.4,30.09,NE,45,1.4,1.4,68,0.00,FEW,,0.00,WeatherDisplay:10.37,2013-09-27 22:53:00,
2013-09-27 18:58:00,75.2,63.9,30.09,NE,45,1.2,1.4,68,0.00,FEW,,0.00,WeatherDisplay:10.37,2013-09-27 22:58:00,
2013-09-27 19:03:00,74.3,63.1,30.09,NE,45,0.0,0.0,68,0.00,FEW,,0.00,WeatherDisplay:10.37,2013-09-27 23:03:00,
2013-09-27 19:08:00,73.9,62.7,30.09,NE,45,1.2,0.0,68,0.00,FEW,,0.00,WeatherDisplay:10.37,2013-09-27 23:08:00,
2013-09-27 19:13:00,73.4,62.2,30.09,North,0,1.2,1.2,68,0.00,FEW,,0.00,WeatherDisplay:10.37,2013-09-27 23:13:00,
2013-09-27 19:18:00,72.7,61.9,30.09,NNE,22,2.3,2.3,69,0.00,CLR,,0.00,WeatherDisplay:10.37,2013-09-27 23:18:00,
2013-09-27 19:23:00,72.1,61.4,30.09,NNE,22,2.3,2.3,69,0.00,CLR,,0.00,WeatherDisplay:10.37,2013-09-27 23:23:00,
2013-09-27 19:28:00,71.6,60.9,30.09,NNE,22,2.3,2.3,69,0.00,CLR,,0.00,WeatherDisplay:10.37,2013-09-27 23:28:00,
2013-09-27 19:33:00,71.2,60.5,30.09,North,0,2.3,2.3,69,0.00,CLR,,0.00,WeatherDisplay:10.37,2013-09-27 23:33:00,
2013-09-27 19:38:00,70.7,60.0,30.09,North,0,2.3,2.3,69,0.00,CLR,,0.00,WeatherDisplay:10.37,2013-09-27 23:38:00,
2013-09-27 19:43:00,70.3,59.7,30.09,North,0,2.3,2.3,69,0.00,CLR,,0.00,WeatherDisplay:10.37,2013-09-27 23:43:00,
2013-09-27 19:48:00,69.8,59.2,30.09,North,0,2.4,2.4,69,0.00,-RA,,0.00,WeatherDisplay:10.37,2013-09-27 23:48:00,
2013-09-27 19:53:00,69.4,59.2,30.09,NE,45,2.3,2.3,70,0.00,-RA,,0.00,WeatherDisplay:10.37,2013-09-27 23:53:00,
2013-09-27 19:58:00,68.9,58.7,30.09,NE,45,2.3,2.3,70,0.00,-RA,,0.00,WeatherDisplay:10.37,2013-09-27 23:58:00,
2013-09-27 20:03:00,68.5,58.4,30.09,NE,45,2.2,2.2,70,0.00,-RA,,0.00,WeatherDisplay:10.37,2013-09-28 00:03:00,
2013-09-27 20:08:00,68.2,58.0,30.09,NNE,22,2.3,2.3,70,0.00,-RA,,0.00,WeatherDisplay:10.37,2013-09-28 00:08:00,
2013-09-27 20:13:00,68.0,57.8,30.09,NNE,22,2.3,2.3,70,0.00,-RA,,0.00,WeatherDisplay:10.37,2013-09-28 00:13:00,
2013-09-27 20:18:00,67.6,57.5,30.09,NE,45,2.0,2.0,70,0.00,CLR,,0.00,WeatherDisplay:10.37,2013-09-28 00:18:00,
2013-09-27 20:23:00,67.5,57.3,30.09,NE,45,1.4,1.4,70,0.00,CLR,,0.00,WeatherDisplay:10.37,2013-09-28 00:23:00,
2013-09-27 20:28:00,67.3,57.2,30.09,NNE,22,2.0,2.0,70,0.00,CLR,,0.00,WeatherDisplay:10.37,2013-09-28 00:28:00,
2013-09-27 20:33:00,66.9,56.8,30.12,NNE,22,2.3,2.3,70,0.00,CLR,,0.00,WeatherDisplay:10.37,2013-09-28 00:33:00,
2013-09-27 20:38:00,66.7,56.6,30.12,NE,45,1.2,0.0,70,0.00,CLR,,0.00,WeatherDisplay:10.37,2013-09-28 00:38:00,
2013-09-27 20:43:00,66.4,56.3,30.12,NNE,22,1.2,1.2,70,0.00,CLR,,0.00,WeatherDisplay:10.37,2013-09-28 00:43:00,
2013-09-27 20:48:00,66.2,56.1,30.12,NE,45,2.3,2.3,70,0.00,CLR,,0.00,WeatherDisplay:10.37,2013-09-28 00:48:00,
2013-09-27 20:53:00,66.0,56.0,30.12,North,0,1.6,1.6,70,0.00,CLR,,0.00,WeatherDisplay:10.37,2013-09-28 00:53:00,
2013-09-27 20:58:00,65.8,55.8,30.12,NNE,22,2.3,2.3,70,0.00,CLR,,0.00,WeatherDisplay:10.37,2013-09-28 00:58:00,
2013-09-27 21:03:00,65.7,55.6,30.12,NE,45,2.3,2.3,70,0.00,CLR,,0.00,WeatherDisplay:10.37,2013-09-28 01:03:00,
2013-09-27 21:08:00,65.5,55.4,30.12,NNE,22,0.0,0.0,70,0.00,CLR,,0.00,WeatherDisplay:10.37,2013-09-28 01:08:00,
2013-09-27 21:13:00,65.3,55.3,30.12,North,0,2.3,2.3,70,0.00,CLR,,0.00,WeatherDisplay:10.37,2013-09-28 01:13:00,
2013-09-27 21:18:00,65.1,55.1,30.12,NNE,22,1.2,1.2,70,0.00,CLR,,0.00,WeatherDisplay:10.37,2013-09-28 01:18:00,
2013-09-27 21:23:00,65.1,55.1,30.12,NNE,22,2.3,2.3,70,0.00,CLR,,0.00,WeatherDisplay:10.37,2013-09-28 01:23:00,
2013-09-27 21:28:00,64.9,54.9,30.12,NNE,22,1.2,1.2,70,0.00,CLR,,0.00,WeatherDisplay:10.37,2013-09-28 01:28:00,
2013-09-27 21:33:00,64.8,54.7,30.12,NE,45,2.3,2.3,70,0.00,CLR,,0.00,WeatherDisplay:10.37,2013-09-28 01:33:00,
2013-09-27 21:38:00,64.6,54.6,30.12,NNE,22,1.6,1.6,70,0.00,CLR,,0.00,WeatherDisplay:10.37,2013-09-28 01:38:00,
2013-09-27 21:43:00,64.4,54.4,30.12,North,0,2.3,2.3,70,0.00,CLR,,0.00,WeatherDisplay:10.37,2013-09-28 01:43:00,
2013-09-27 21:48:00,64.4,54.4,30.12,North,0,2.3,2.3,70,0.00,CLR,,0.00,WeatherDisplay:10.37,2013-09-28 01:48:00,
2013-09-27 21:53:00,64.2,54.6,30.12,NNE,22,2.3,2.3,71,0.00,CLR,,0.00,WeatherDisplay:10.37,2013-09-28 01:53:00,
2013-09-27 21:58:00,64.2,54.6,30.12,NNE,22,2.0,2.0,71,0.00,CLR,,0.00,WeatherDisplay:10.37,2013-09-28 01:58:00,
2013-09-27 22:03:00,64.4,54.4,30.12,NNE,22,2.3,2.3,70,0.00,CLR,,0.00,WeatherDisplay:10.37,2013-09-28 02:03:00,
2013-09-27 22:08:00,64.2,54.6,30.12,NE,45,2.3,0.0,71,0.00,CLR,,0.00,WeatherDisplay:10.37,2013-09-28 02:08:00,
2013-09-27 22:13:00,64.0,54.4,30.12,NE,45,0.0,0.0,71,0.00,CLR,,0.00,WeatherDisplay:10.37,2013-09-28 02:13:00,
2013-09-27 22:18:00,63.5,53.9,30.12,NE,45,1.2,0.0,71,0.00,CLR,,0.00,WeatherDisplay:10.37,2013-09-28 02:18:00,
2013-09-27 22:23:00,63.1,53.6,30.12,NNE,22,2.0,2.0,71,0.00,CLR,,0.00,WeatherDisplay:10.37,2013-09-28 02:23:00,
2013-09-27 22:28:00,63.1,53.6,30.12,NNE,22,1.4,1.4,71,0.00,CLR,,0.00,WeatherDisplay:10.37,2013-09-28 02:28:00,
2013-09-27 22:33:00,63.3,53.8,30.09,North,0,2.3,2.3,71,0.00,CLR,,0.00,WeatherDisplay:10.37,2013-09-28 02:33:00,
2013-09-27 22:38:00,63.5,53.9,30.09,NE,45,2.2,2.2,71,0.00,CLR,,0.00,WeatherDisplay:10.37,2013-09-28 02:38:00,
2013-09-27 22:43:00,63.3,53.8,30.09,NNE,22,2.3,2.3,71,0.00,CLR,,0.00,WeatherDisplay:10.37,2013-09-28 02:43:00,
2013-09-27 22:48:00,63.3,53.8,30.12,NE,45,0.0,0.0,71,0.00,CLR,,0.00,WeatherDisplay:10.37,2013-09-28 02:48:00,
2013-09-27 22:53:00,63.3,53.8,30.12,NE,45,1.2,0.0,71,0.00,CLR,,0.00,WeatherDisplay:10.37,2013-09-28 02:53:00,
2013-09-27 22:58:00,63.1,53.6,30.12,NNE,22,1.2,0.0,71,0.00,CLR,,0.00,WeatherDisplay:10.37,2013-09-28 02:58:00,
2013-09-27 23:03:00,63.1,53.6,30.12,NNE,22,2.3,2.3,71,0.00,CLR,,0.00,WeatherDisplay:10.37,2013-09-28 03:03:00,
2013-09-27 23:08:00,63.3,53.8,30.12,NNE,22,2.3,2.3,71,0.00,CLR,,0.00,WeatherDisplay:10.37,2013-09-28 03:08:00,
2013-09-27 23:13:00,63.1,53.6,30.12,NNE,22,2.3,2.3,71,0.00,CLR,,0.00,WeatherDisplay:10.37,2013-09-28 03:13:00,
2013-09-27 23:18:00,63.1,53.6,30.12,NE,45,2.4,2.4,71,0.00,CLR,,0.00,WeatherDisplay:10.37,2013-09-28 03:18:00,
2013-09-27 23:23:00,63.1,53.6,30.12,NNE,22,2.3,2.3,71,0.00,CLR,,0.00,WeatherDisplay:10.37,2013-09-28 03:23:00,
2013-09-27 23:33:00,57.4,26.2,30.12,NNE,22,0.0,2.0,30,0.00,CLR,CLR,0.00,WeatherDisplay:10.37,2013-09-28 03:33:00,
2013-09-27 23:48:00,57.6,27.1,30.12,NNE,27,1.0,2.0,31,0.00,CLR,CLR,0.00,WeatherDisplay:10.37,2013-09-28 03:48:00,